Time;durP1;ratioP1;P1;durP2;ratioP2;P2;SDS_P1;SDS_P2;PMS_P1;PMS_P2;Temp;Humidity;BMP_temperature;BMP_pressure;BME280_temperature;BME280_humidity;BME280_pressure;Samples;Min_cycle;Max_cycle;Signal;HPM_P1;HPM_P2
2022/04/14 00:01:45;;;;;;;14.77;10.43;;;13.50;96.30;;;;;;6065681;23;92361;-70
2022/04/14 00:04:12;;;;;;;18.75;11.50;;;13.40;96.30;;;;;;6015455;23;92478;-70
2022/04/14 00:06:39;;;;;;;18.88;11.40;;;13.40;96.30;;;;;;6040457;23;91712;-70
2022/04/14 00:09:06;;;;;;;15.48;11.73;;;13.40;96.30;;;;;;6064329;23;103533;-70
2022/04/14 00:11:33;;;;;;;18.95;12.00;;;13.40;96.30;;;;;;6065983;23;92899;-70
2022/04/14 00:14:01;;;;;;;20.10;12.68;;;13.30;96.30;;;;;;6037920;23;94778;-70
2022/04/14 00:16:28;;;;;;;16.65;12.20;;;13.30;96.30;;;;;;6065741;23;92475;-70
2022/04/14 00:18:55;;;;;;;19.48;11.93;;;13.30;96.40;;;;;;6065666;23;93783;-70
2022/04/14 00:21:22;;;;;;;15.90;11.95;;;13.30;96.40;;;;;;6065158;23;95464;-70
2022/04/14 00:23:49;;;;;;;17.05;11.00;;;13.30;96.40;;;;;;6065499;23;92881;-70
2022/04/14 00:26:16;;;;;;;15.13;11.23;;;13.30;96.40;;;;;;6039377;23;92449;-70
2022/04/14 00:28:43;;;;;;;16.63;12.38;;;13.30;96.40;;;;;;6065850;23;93878;-70
2022/04/14 00:31:10;;;;;;;18.27;11.07;;;13.30;96.40;;;;;;6040030;23;93056;-71
2022/04/14 00:33:37;;;;;;;19.15;11.35;;;13.20;96.40;;;;;;6015721;23;92415;-70
2022/04/14 00:36:04;;;;;;;15.98;10.07;;;13.20;96.40;;;;;;6065279;23;92401;-71
2022/04/14 00:38:31;;;;;;;17.88;11.25;;;13.20;96.40;;;;;;6038040;23;98023;-70
2022/04/14 00:40:58;;;;;;;16.55;10.88;;;13.20;96.40;;;;;;6039178;23;97072;-71
2022/04/14 00:43:33;;;;;;;13.73;9.82;;;13.20;96.40;;;;;;6039697;23;92406;-71
2022/04/14 00:46:02;;;;;;;14.63;10.32;;;13.20;96.30;;;;;;6040666;23;92627;-70
2022/04/14 00:48:30;;;;;;;12.23;9.25;;;13.20;96.30;;;;;;6039381;23;105536;-70
2022/04/14 00:50:58;;;;;;;16.52;10.05;;;13.20;96.20;;;;;;6065857;23;92844;-70
2022/04/14 00:53:25;;;;;;;15.43;10.60;;;13.10;96.20;;;;;;6039130;23;92402;-71
2022/04/14 00:55:52;;;;;;;13.32;9.68;;;13.10;96.20;;;;;;6066170;23;92164;-70
2022/04/14 00:58:19;;;;;;;14.40;9.90;;;13.10;96.20;;;;;;6039492;23;94536;-70
2022/04/14 01:00:46;;;;;;;12.45;9.45;;;13.10;96.20;;;;;;6065387;23;105327;-71
2022/04/14 01:03:15;;;;;;;12.48;10.15;;;13.10;96.20;;;;;;6064668;23;95040;-70
2022/04/14 01:05:45;;;;;;;13.40;9.40;;;13.10;96.20;;;;;;6065373;23;92458;-70
2022/04/14 01:08:17;;;;;;;14.45;10.35;;;13.10;96.20;;;;;;6040491;23;93108;-70
2022/04/14 01:10:47;;;;;;;14.38;9.30;;;13.10;96.20;;;;;;6065048;23;95655;-70
2022/04/14 01:13:15;;;;;;;15.52;10.10;;;13.00;96.20;;;;;;6039915;23;92551;-70
2022/04/14 01:15:43;;;;;;;12.38;9.93;;;13.00;96.20;;;;;;6039137;23;92486;-70
2022/04/14 01:18:11;;;;;;;15.65;10.32;;;13.00;96.30;;;;;;6039300;23;108969;-70
2022/04/14 01:20:41;;;;;;;13.10;9.80;;;12.90;96.30;;;;;;6065391;23;91866;-70
2022/04/14 01:23:10;;;;;;;12.32;9.80;;;12.90;96.30;;;;;;6066404;23;92394;-70
2022/04/14 01:25:38;;;;;;;14.23;10.35;;;12.90;96.30;;;;;;6016887;23;92514;-70
2022/04/14 01:28:06;;;;;;;13.93;9.93;;;12.90;96.40;;;;;;6064724;23;95539;-70
2022/04/14 01:30:34;;;;;;;16.38;10.40;;;12.90;96.40;;;;;;6066878;23;94211;-70
2022/04/14 01:33:02;;;;;;;15.60;9.93;;;12.80;96.40;;;;;;6066404;23;92339;-70
2022/04/14 01:35:29;;;;;;;12.10;9.90;;;12.80;96.40;;;;;;6041121;23;92803;-70
2022/04/14 01:37:56;;;;;;;14.68;9.88;;;12.80;96.40;;;;;;6016682;23;95674;-70
2022/04/14 01:40:23;;;;;;;13.95;10.63;;;12.70;96.50;;;;;;6064832;23;95696;-70
2022/04/14 01:42:50;;;;;;;14.40;9.73;;;12.70;96.50;;;;;;6065732;23;103399;-71
2022/04/14 01:45:17;;;;;;;14.00;9.80;;;12.70;96.50;;;;;;6041455;23;91946;-70
2022/04/14 01:47:45;;;;;;;13.35;10.50;;;12.70;96.50;;;;;;6040705;23;95627;-70
2022/04/14 01:50:14;;;;;;;14.10;10.13;;;12.70;96.60;;;;;;6065823;23;93015;-70
2022/04/14 01:52:44;;;;;;;15.65;10.57;;;12.60;96.60;;;;;;6064622;23;94704;-70
2022/04/14 01:55:12;;;;;;;14.38;9.98;;;12.60;96.60;;;;;;6066059;23;92449;-70
2022/04/14 01:57:39;;;;;;;18.15;10.85;;;12.60;96.60;;;;;;6039956;23;95859;-70
2022/04/14 02:00:07;;;;;;;12.00;10.15;;;12.60;96.70;;;;;;6066232;23;93040;-70
2022/04/14 02:02:34;;;;;;;16.08;10.68;;;12.50;96.60;;;;;;6015784;23;92504;-70
2022/04/14 02:05:02;;;;;;;13.88;10.55;;;12.50;96.70;;;;;;6066285;23;92397;-70
2022/04/14 02:07:29;;;;;;;15.55;10.88;;;12.50;96.70;;;;;;6040175;23;93319;-70
2022/04/14 02:09:56;;;;;;;17.98;11.32;;;12.40;96.80;;;;;;6065704;23;112552;-71
2022/04/14 02:12:24;;;;;;;15.15;10.82;;;12.40;96.80;;;;;;6065897;23;92463;-70
2022/04/14 02:14:52;;;;;;;21.35;12.32;;;12.40;96.80;;;;;;6066650;23;92811;-71
2022/04/14 02:17:20;;;;;;;19.27;11.15;;;12.40;96.90;;;;;;6064079;23;98032;-70
2022/04/14 02:19:47;;;;;;;19.42;12.38;;;12.30;96.90;;;;;;6066050;23;95271;-70
2022/04/14 02:22:15;;;;;;;16.75;11.85;;;12.30;96.90;;;;;;6066041;23;92392;-70
2022/04/14 02:24:42;;;;;;;16.35;12.30;;;12.30;97.00;;;;;;6065737;23;101374;-70
2022/04/14 02:27:09;;;;;;;18.42;12.73;;;12.20;97.00;;;;;;6016097;23;95929;-70
2022/04/14 02:29:36;;;;;;;17.45;12.02;;;12.20;97.00;;;;;;6015650;23;95407;-70
2022/04/14 02:32:03;;;;;;;18.30;12.45;;;12.20;97.00;;;;;;6039709;23;92529;-70
2022/04/14 02:34:30;;;;;;;17.38;12.25;;;12.20;97.10;;;;;;6066482;23;91660;-70
2022/04/14 02:36:57;;;;;;;18.27;13.55;;;12.10;97.00;;;;;;6040460;23;93227;-70
2022/04/14 02:39:24;;;;;;;18.02;12.90;;;12.10;97.10;;;;;;6065693;23;92997;-70
2022/04/14 02:41:52;;;;;;;18.05;12.90;;;12.10;97.10;;;;;;6038086;23;103866;-70
2022/04/14 02:44:19;;;;;;;20.38;13.60;;;12.10;97.10;;;;;;6040313;23;92512;-70
2022/04/14 02:46:46;;;;;;;18.48;13.25;;;12.00;97.20;;;;;;6040510;23;93044;-70
2022/04/14 02:49:13;;;;;;;19.15;13.80;;;12.00;97.20;;;;;;6039802;23;94756;-70
2022/04/14 02:51:40;;;;;;;16.73;13.32;;;12.00;97.30;;;;;;6065684;23;92328;-70
2022/04/14 02:54:07;;;;;;;22.08;14.07;;;12.00;97.30;;;;;;6066107;23;92387;-70
2022/04/14 02:56:34;;;;;;;22.67;14.57;;;12.00;97.30;;;;;;6015628;23;95725;-70
2022/04/14 02:59:01;;;;;;;20.08;15.45;;;12.00;97.40;;;;;;6065621;23;109372;-70
2022/04/14 03:01:28;;;;;;;23.85;15.88;;;12.00;97.40;;;;;;6040102;23;92451;-71
2022/04/14 03:03:55;;;;;;;23.23;16.05;;;12.00;97.40;;;;;;6066136;23;92292;-70
2022/04/14 03:06:22;;;;;;;21.50;14.93;;;12.00;97.40;;;;;;6063310;23;95791;-70
2022/04/14 03:08:49;;;;;;;22.67;16.75;;;12.00;97.40;;;;;;6065645;23;95098;-70
2022/04/14 03:11:16;;;;;;;22.90;15.63;;;12.00;97.50;;;;;;6040208;23;94086;-70
2022/04/14 03:13:43;;;;;;;21.88;16.38;;;12.00;97.50;;;;;;6015686;23;92487;-70
2022/04/14 03:16:10;;;;;;;20.92;15.02;;;11.90;97.50;;;;;;6039537;23;109720;-70
2022/04/14 03:18:37;;;;;;;22.85;17.17;;;11.90;97.50;;;;;;6039397;23;95580;-70
2022/04/14 03:21:04;;;;;;;20.98;16.00;;;11.90;97.50;;;;;;6065953;23;92404;-70
2022/04/14 03:23:31;;;;;;;24.10;17.52;;;11.90;97.60;;;;;;6040125;23;91765;-70
2022/04/14 03:25:58;;;;;;;26.95;17.38;;;11.90;97.60;;;;;;6016139;23;92998;-70
2022/04/14 03:28:25;;;;;;;26.02;18.33;;;11.90;97.70;;;;;;6039047;23;107302;-70
2022/04/14 03:30:57;;;;;;;25.20;17.80;;;11.80;97.70;;;;;;6064558;23;94796;-70
2022/04/14 03:33:24;;;;;;;26.02;18.95;;;11.80;97.70;;;;;;6015525;23;92486;-70
2022/04/14 03:35:51;;;;;;;26.48;18.42;;;11.80;97.80;;;;;;6065695;23;92936;-70
2022/04/14 03:38:18;;;;;;;26.58;19.05;;;11.80;97.80;;;;;;6039898;23;95388;-70
2022/04/14 03:41:02;;;;;;;28.23;19.67;;;11.80;97.80;;;;;;6039900;23;92401;-70
2022/04/14 03:43:31;;;;;;;32.35;19.63;;;11.80;97.80;;;;;;6039179;23;92476;-70
2022/04/14 03:45:58;;;;;;;25.35;18.70;;;11.70;97.80;;;;;;6039330;23;95716;-70
2022/04/14 03:48:25;;;;;;;31.70;20.75;;;11.70;97.80;;;;;;6015973;23;106908;-70
2022/04/14 03:50:54;;;;;;;28.88;20.05;;;11.70;97.90;;;;;;6040214;23;92368;-70
2022/04/14 03:53:21;;;;;;;28.73;20.27;;;11.70;97.90;;;;;;6065638;23;92442;-70
2022/04/14 03:55:48;;;;;;;32.13;21.77;;;11.70;98.00;;;;;;6037605;23;98097;-70
2022/04/14 03:58:15;;;;;;;28.95;20.90;;;11.60;98.00;;;;;;6039779;23;99073;-70
2022/04/14 04:00:42;;;;;;;29.38;21.30;;;11.60;98.00;;;;;;6015435;23;92433;-70
2022/04/14 04:03:13;;;;;;;32.22;21.00;;;11.60;98.00;;;;;;6065827;23;92446;-70
2022/04/14 04:05:40;;;;;;;28.77;22.17;;;11.60;98.00;;;;;;6039537;23;94260;-70
2022/04/14 04:08:08;;;;;;;29.05;21.25;;;11.50;98.10;;;;;;6039538;23;96741;-70
2022/04/14 04:10:35;;;;;;;31.27;21.70;;;11.50;98.10;;;;;;6065449;23;92414;-70
2022/04/14 04:13:02;;;;;;;32.42;22.63;;;11.50;98.20;;;;;;6066075;23;91657;-70
2022/04/14 04:15:29;;;;;;;35.85;22.85;;;11.50;98.20;;;;;;6039588;23;93083;-70
2022/04/14 04:17:56;;;;;;;31.20;22.33;;;11.40;98.20;;;;;;6065039;23;103797;-70
2022/04/14 04:20:24;;;;;;;31.50;21.88;;;11.40;98.20;;;;;;6064209;23;94896;-70
2022/04/14 04:22:51;;;;;;;35.33;23.65;;;11.40;98.20;;;;;;6039347;23;93446;-70
2022/04/14 04:25:18;;;;;;;30.23;22.95;;;11.40;98.20;;;;;;6065548;23;93074;-70
2022/04/14 04:27:45;;;;;;;32.83;22.58;;;11.30;98.30;;;;;;6065181;23;92927;-70
2022/04/14 04:30:12;;;;;;;31.05;22.58;;;11.30;98.30;;;;;;6065725;23;92312;-70
2022/04/14 04:32:39;;;;;;;34.13;23.17;;;11.20;98.30;;;;;;6015845;23;92892;-70
2022/04/14 04:35:07;;;;;;;35.33;22.77;;;11.20;98.30;;;;;;6039877;23;93338;-70
2022/04/14 04:37:34;;;;;;;37.28;24.05;;;11.20;98.40;;;;;;6065578;23;92904;-70
2022/04/14 04:40:01;;;;;;;33.58;23.05;;;11.10;98.40;;;;;;6065828;23;92555;-70
2022/04/14 04:42:28;;;;;;;34.92;22.73;;;11.10;98.40;;;;;;6039498;23;92521;-70
2022/04/14 04:44:55;;;;;;;33.75;24.08;;;11.10;98.40;;;;;;6013763;23;96621;-70
2022/04/14 04:47:22;;;;;;;31.77;22.08;;;11.10;98.40;;;;;;6065240;23;95310;-70
2022/04/14 04:49:49;;;;;;;34.38;23.55;;;11.00;98.40;;;;;;6065280;23;92707;-70
2022/04/14 04:52:16;;;;;;;33.63;22.33;;;11.00;98.50;;;;;;6065460;23;92386;-70
2022/04/14 04:54:44;;;;;;;33.00;23.27;;;11.00;98.50;;;;;;6014534;23;109298;-70
2022/04/14 04:57:11;;;;;;;32.22;21.98;;;11.00;98.50;;;;;;6065122;23;92908;-70
2022/04/14 04:59:38;;;;;;;36.25;22.92;;;10.90;98.50;;;;;;6065200;23;94470;-70
2022/04/14 05:02:05;;;;;;;29.40;22.38;;;10.90;98.60;;;;;;6039956;23;91724;-70
2022/04/14 05:04:32;;;;;;;29.15;21.95;;;10.90;98.60;;;;;;6039320;23;93407;-70
2022/04/14 05:07:00;;;;;;;37.30;23.27;;;10.90;98.50;;;;;;6038517;23;106960;-70
2022/04/14 05:09:27;;;;;;;32.58;22.77;;;10.90;98.50;;;;;;6063924;23;94833;-70
2022/04/14 05:11:54;;;;;;;31.88;22.55;;;10.90;98.50;;;;;;6065045;23;92357;-70
2022/04/14 05:14:21;;;;;;;33.10;23.95;;;10.90;98.40;;;;;;6015058;23;94182;-70
2022/04/14 05:16:47;;;;;;;34.22;23.25;;;10.90;98.40;;;;;;6039315;23;93528;-70
2022/04/14 05:19:15;;;;;;;38.20;24.20;;;10.90;98.30;;;;;;6039091;23;99043;-70
2022/04/14 05:21:42;;;;;;;35.00;25.02;;;10.90;98.30;;;;;;6038835;23;92486;-70
2022/04/14 05:24:09;;;;;;;36.33;24.23;;;10.90;98.40;;;;;;6033664;23;93364;-70
2022/04/14 05:26:36;;;;;;;38.60;24.92;;;10.90;98.30;;;;;;6035963;23;93022;-70
2022/04/14 05:29:03;;;;;;;34.58;23.77;;;10.90;98.40;;;;;;6035968;23;92300;-70
2022/04/14 05:31:30;;;;;;;35.50;25.17;;;10.90;98.40;;;;;;6035575;23;101241;-70
2022/04/14 05:33:57;;;;;;;33.50;23.70;;;10.90;98.30;;;;;;6033919;23;96104;-70
2022/04/14 05:36:24;;;;;;;34.13;23.08;;;11.00;98.40;;;;;;6035742;23;95541;-70
2022/04/14 05:38:51;;;;;;;30.83;21.92;;;11.00;98.40;;;;;;6035633;23;92333;-70
2022/04/14 05:41:18;;;;;;;31.70;22.45;;;11.10;98.30;;;;;;6033942;23;93100;-70
2022/04/14 05:43:45;;;;;;;34.33;22.85;;;11.30;98.40;;;;;;6033882;23;95929;-70
2022/04/14 05:46:12;;;;;;;31.42;21.88;;;11.50;98.30;;;;;;6035698;23;93183;-70
2022/04/14 05:48:39;;;;;;;29.25;21.85;;;11.70;98.00;;;;;;6010549;23;92400;-70
2022/04/14 05:51:06;;;;;;;28.17;21.20;;;11.80;97.70;;;;;;6034600;23;91746;-70
2022/04/14 05:53:34;;;;;;;27.30;21.23;;;12.00;97.60;;;;;;6035461;23;93175;-71
2022/04/14 05:56:01;;;;;;;24.60;18.98;;;12.20;97.60;;;;;;6033576;23;95870;-70
2022/04/14 05:58:28;;;;;;;24.52;19.35;;;12.40;97.50;;;;;;6032734;23;94838;-70
2022/04/14 06:00:55;;;;;;;28.90;21.05;;;12.70;97.20;;;;;;6033928;23;92405;-71
2022/04/14 06:03:22;;;;;;;27.75;21.15;;;13.10;96.70;;;;;;6009097;23;106559;-70
2022/04/14 06:05:48;;;;;;;30.45;21.08;;;13.30;96.20;;;;;;6035206;23;93002;-70
2022/04/14 06:08:15;;;;;;;28.15;22.58;;;13.40;96.10;;;;;;6036347;23;92422;-70
2022/04/14 06:10:42;;;;;;;28.48;22.48;;;13.50;95.90;;;;;;6035363;23;92456;-70
2022/04/14 06:13:11;;;;;;;25.42;21.10;;;13.60;95.80;;;;;;6035486;23;93105;-70
2022/04/14 06:15:38;;;;;;;28.30;21.52;;;13.80;95.70;;;;;;6035887;23;93072;-71
2022/04/14 06:18:05;;;;;;;29.35;22.58;;;14.10;95.40;;;;;;6034854;23;96765;-71
2022/04/14 06:20:32;;;;;;;25.23;21.08;;;14.40;94.90;;;;;;6035761;23;92762;-71
2022/04/14 06:22:59;;;;;;;27.77;21.65;;;14.60;94.50;;;;;;6034607;23;95650;-71
2022/04/14 06:25:27;;;;;;;28.80;20.00;;;14.80;94.20;;;;;;6016140;23;98007;-70
2022/04/14 06:27:57;;;;;;;26.77;21.05;;;15.10;93.80;;;;;;6039858;23;92476;-70
2022/04/14 06:30:24;;;;;;;26.60;20.95;;;15.40;93.60;;;;;;6040104;23;92453;-70
2022/04/14 06:33:04;;;;;;;28.67;21.63;;;15.60;93.30;;;;;;6039183;23;109227;-70
2022/04/14 06:35:32;;;;;;;24.15;21.02;;;16.10;93.00;;;;;;6040124;23;95521;-71
2022/04/14 06:37:59;;;;;;;24.30;20.77;;;16.20;92.70;;;;;;6015548;23;92395;-71
2022/04/14 06:40:26;;;;;;;26.98;21.83;;;16.50;92.50;;;;;;6040306;23;91772;-71
2022/04/14 06:42:59;;;;;;;24.40;21.77;;;16.90;91.90;;;;;;6040001;23;95807;-71
2022/04/14 06:45:27;;;;;;;24.20;21.65;;;17.30;91.50;;;;;;6039788;23;95664;-71
2022/04/14 06:47:54;;;;;;;24.95;21.73;;;17.60;90.90;;;;;;6064291;23;94844;-71
2022/04/14 06:50:21;;;;;;;24.95;22.17;;;18.00;90.40;;;;;;6015660;23;102129;-71
2022/04/14 06:52:48;;;;;;;24.73;22.05;;;18.20;89.40;;;;;;6040371;23;92486;-71
2022/04/14 06:55:16;;;;;;;25.77;22.98;;;18.40;88.60;;;;;;6040209;23;93090;-71
2022/04/14 06:57:43;;;;;;;24.85;22.02;;;18.50;87.90;;;;;;6066115;23;92380;-71
2022/04/14 07:00:11;;;;;;;24.60;21.90;;;18.80;87.30;;;;;;6065448;23;92987;-71
2022/04/14 07:02:48;;;;;;;25.73;22.77;;;19.00;86.30;;;;;;6040239;23;93316;-71
2022/04/14 07:05:16;;;;;;;25.02;22.40;;;19.50;84.80;;;;;;6016362;23;95892;-71
2022/04/14 07:07:44;;;;;;;24.00;21.40;;;19.70;84.30;;;;;;6039850;23;92424;-71
2022/04/14 07:10:13;;;;;;;24.02;20.65;;;20.00;82.00;;;;;;6065703;23;93418;-71
2022/04/14 07:12:41;;;;;;;25.42;22.83;;;20.40;80.10;;;;;;6064226;23;95611;-70
2022/04/14 07:15:09;;;;;;;23.20;20.70;;;20.70;78.70;;;;;;6065305;23;95355;-71
2022/04/14 07:17:37;;;;;;;23.17;20.75;;;21.00;77.50;;;;;;6065877;23;92391;-71
2022/04/14 07:20:05;;;;;;;23.17;20.75;;;21.10;76.60;;;;;;6065604;23;92307;-71
2022/04/14 07:22:47;;;;;;;24.73;22.05;;;21.20;76.00;;;;;;6039662;23;95877;-71
2022/04/14 07:25:17;;;;;;;22.77;19.77;;;21.30;75.10;;;;;;6059587;23;93197;-71
2022/04/14 07:27:44;;;;;;;23.70;21.30;;;21.10;75.90;;;;;;6065839;23;92430;-71
2022/04/14 07:30:12;;;;;;;22.63;20.52;;;21.30;75.70;;;;;;6040033;23;91706;-71
2022/04/14 07:32:43;;;;;;;23.02;20.55;;;21.60;75.10;;;;;;6015517;23;96426;-71
2022/04/14 07:35:10;;;;;;;19.65;17.58;;;21.90;74.40;;;;;;6065501;23;93035;-71
2022/04/14 07:37:40;;;;;;;21.35;19.17;;;22.30;73.10;;;;;;6064081;23;103711;-71
2022/04/14 07:40:11;;;;;;;21.08;18.90;;;22.60;72.80;;;;;;6039809;23;92495;-71
2022/04/14 07:42:40;;;;;;;21.52;19.52;;;22.60;71.90;;;;;;6015792;23;96852;-71
2022/04/14 07:45:11;;;;;;;20.63;18.73;;;22.70;71.50;;;;;;6065386;23;92927;-71
2022/04/14 07:47:43;;;;;;;18.40;16.60;;;22.70;70.80;;;;;;6039999;23;92469;-72
2022/04/14 07:50:29;;;;;;;19.55;17.90;;;22.80;70.90;;;;;;6015804;23;92558;-72
2022/04/14 07:53:01;;;;;;;20.95;19.25;;;22.90;69.20;;;;;;6039649;23;95650;-71
2022/04/14 07:55:33;;;;;;;19.73;17.92;;;23.10;69.10;;;;;;6065904;23;92999;-71
2022/04/14 07:58:05;;;;;;;25.00;22.88;;;23.30;68.40;;;;;;6065676;23;92435;-71
2022/04/14 08:00:34;;;;;;;21.00;19.05;;;23.50;67.90;;;;;;6065759;23;92464;-72
2022/04/14 08:03:02;;;;;;;33.95;31.98;;;23.80;67.60;;;;;;6037635;23;108357;-71
2022/04/14 08:05:36;;;;;;;22.98;21.27;;;24.30;66.00;;;;;;6065531;23;95394;-71
2022/04/14 08:08:06;;;;;;;29.42;27.42;;;24.90;64.60;;;;;;6063940;23;92341;-71
2022/04/14 08:10:34;;;;;;;31.23;29.25;;;25.50;61.90;;;;;;6016108;23;92596;-71
2022/04/14 08:13:01;;;;;;;30.48;28.52;;;26.10;60.30;;;;;;6039401;23;93043;-71
2022/04/14 08:15:29;;;;;;;29.40;27.27;;;26.70;58.50;;;;;;6065399;23;93096;-72
2022/04/14 08:18:00;;;;;;;28.63;26.83;;;27.10;56.60;;;;;;6039009;23;103851;-72
2022/04/14 08:20:28;;;;;;;30.38;28.58;;;27.60;54.40;;;;;;6066311;23;91609;-72
2022/04/14 08:22:59;;;;;;;27.50;25.85;;;27.80;53.50;;;;;;6039307;23;94265;-71
2022/04/14 08:25:44;;;;;;;26.30;24.70;;;28.30;50.70;;;;;;6039822;23;93005;-72
2022/04/14 08:28:25;;;;;;;32.53;30.80;;;28.70;49.20;;;;;;6033771;23;94859;-71
2022/04/14 08:30:54;;;;;;;27.85;26.23;;;28.40;47.90;;;;;;6039366;23;92581;-71
2022/04/14 08:33:24;;;;;;;33.85;32.03;;;28.40;46.30;;;;;;6065104;23;92993;-71
2022/04/14 08:35:53;;;;;;;33.15;31.02;;;28.00;47.40;;;;;;6065463;23;93035;-72
2022/04/14 08:38:21;;;;;;;28.92;27.08;;;27.40;48.20;;;;;;6065351;23;92821;-71
2022/04/14 08:41:04;;;;;;;30.60;28.80;;;27.10;49.70;;;;;;6065311;23;92466;-72
2022/04/14 08:43:48;;;;;;;21.90;20.25;;;27.10;50.30;;;;;;6039449;23;96409;-72
2022/04/14 08:46:17;;;;;;;14.63;13.43;;;26.70;50.50;;;;;;6065530;23;93195;-72
2022/04/14 08:48:52;;;;;;;14.82;13.48;;;26.30;51.80;;;;;;6016528;23;92466;-72
2022/04/14 08:51:22;;;;;;;14.77;13.38;;;26.30;51.40;;;;;;6065438;23;92364;-71
2022/04/14 08:53:50;;;;;;;15.50;14.18;;;26.00;52.50;;;;;;6038160;23;95757;-71
2022/04/14 08:56:21;;;;;;;14.93;13.50;;;25.50;52.80;;;;;;6038984;23;96744;-71
2022/04/14 08:58:50;;;;;;;14.43;12.98;;;24.90;53.60;;;;;;6039660;23;92442;-71
2022/04/14 09:01:17;;;;;;;16.67;15.18;;;24.40;55.70;;;;;;6065018;23;93904;-71
2022/04/14 09:03:56;;;;;;;16.95;15.25;;;23.90;57.30;;;;;;6065011;23;93162;-71
2022/04/14 09:06:27;;;;;;;16.35;14.82;;;23.60;58.90;;;;;;6015012;23;95482;-71
2022/04/14 09:08:57;;;;;;;18.48;16.60;;;23.10;60.40;;;;;;6040786;23;92921;-71
2022/04/14 09:11:25;;;;;;;15.15;13.63;;;22.90;61.00;;;;;;6065614;23;91716;-71
2022/04/14 09:13:52;;;;;;;16.70;15.18;;;22.60;62.00;;;;;;6038239;23;110236;-71
2022/04/14 09:16:20;;;;;;;16.20;14.60;;;22.40;63.10;;;;;;6064674;23;93050;-71
2022/04/14 09:18:47;;;;;;;18.13;16.30;;;22.30;63.90;;;;;;6014634;23;95282;-71
2022/04/14 09:21:15;;;;;;;16.92;15.30;;;22.20;64.30;;;;;;6064896;23;92340;-71
2022/04/14 09:23:50;;;;;;;16.05;14.48;;;22.10;64.40;;;;;;6038681;23;94777;-71
2022/04/14 09:26:23;;;;;;;16.30;14.80;;;22.00;64.50;;;;;;6038806;23;95523;-71
2022/04/14 09:29:10;;;;;;;16.52;14.82;;;21.80;65.30;;;;;;6065276;23;92775;-71
2022/04/14 09:31:47;;;;;;;14.75;13.30;;;21.90;66.00;;;;;;6065244;23;92333;-71
2022/04/14 09:34:17;;;;;;;16.45;14.77;;;21.80;65.70;;;;;;6064550;23;93209;-71
2022/04/14 09:37:07;;;;;;;15.00;13.50;;;21.80;65.50;;;;;;6039192;23;95620;-71
2022/04/14 09:39:55;;;;;;;15.45;13.90;;;21.80;64.30;;;;;;6039762;23;92499;-71
2022/04/14 09:42:27;;;;;;;15.27;13.68;;;21.70;66.10;;;;;;6039282;23;92512;-71
2022/04/14 09:44:54;;;;;;;15.98;14.35;;;21.60;65.50;;;;;;6064672;23;95502;-71
2022/04/14 09:47:39;;;;;;;16.77;15.15;;;21.50;65.30;;;;;;6065125;23;109261;-71
2022/04/14 09:50:24;;;;;;;15.40;13.43;;;21.40;66.00;;;;;;6040766;23;93330;-71
2022/04/14 09:53:00;;;;;;;14.93;13.40;;;21.40;65.70;;;;;;6040340;23;92503;-71
2022/04/14 09:55:28;;;;;;;16.55;13.32;;;21.30;65.60;;;;;;6065633;23;93214;-71
2022/04/14 09:58:04;;;;;;;14.75;13.20;;;21.20;66.10;;;;;;6066068;23;93037;-71
2022/04/14 10:00:45;;;;;;;13.40;12.07;;;21.10;66.20;;;;;;6065994;23;92302;-71
2022/04/14 10:03:20;;;;;;;14.13;12.63;;;21.00;66.50;;;;;;6040700;23;91693;-71
2022/04/14 10:05:49;;;;;;;14.57;13.27;;;21.00;66.60;;;;;;6066093;23;93355;-71
2022/04/14 10:08:17;;;;;;;12.93;11.48;;;21.00;66.40;;;;;;6039462;23;95568;-71
2022/04/14 10:10:48;;;;;;;13.80;12.43;;;20.90;66.40;;;;;;6064713;23;94742;-71
2022/04/14 10:13:18;;;;;;;13.10;11.80;;;20.90;66.80;;;;;;6065857;23;92326;-71
2022/04/14 10:15:48;;;;;;;13.45;11.48;;;20.90;66.50;;;;;;6040351;23;93173;-71
2022/04/14 10:18:17;;;;;;;13.23;11.77;;;20.90;66.80;;;;;;6065849;23;93125;-71
2022/04/14 10:20:46;;;;;;;14.43;12.93;;;20.90;66.90;;;;;;6066087;23;92369;-71
2022/04/14 10:23:14;;;;;;;12.18;10.95;;;21.00;66.60;;;;;;6066223;23;92382;-71
2022/04/14 10:25:42;;;;;;;15.50;12.80;;;21.10;66.80;;;;;;6039483;23;95666;-71
2022/04/14 10:28:14;;;;;;;12.80;11.10;;;21.30;65.30;;;;;;6040220;23;95400;-71
2022/04/14 10:30:52;;;;;;;12.07;10.98;;;21.50;64.60;;;;;;6039931;23;92406;-71
2022/04/14 10:33:20;;;;;;;11.38;10.27;;;21.40;63.90;;;;;;6065841;23;92351;-71
2022/04/14 10:35:48;;;;;;;14.27;12.77;;;21.40;64.60;;;;;;6038660;23;95597;-71
2022/04/14 10:38:36;;;;;;;12.82;11.55;;;21.50;64.60;;;;;;6065779;23;95422;-71
2022/04/14 10:41:05;;;;;;;13.30;11.73;;;21.40;64.30;;;;;;6066167;23;92353;-70
2022/04/14 10:43:34;;;;;;;12.10;10.55;;;21.20;64.90;;;;;;6039540;23;103015;-70
2022/04/14 10:46:02;;;;;;;10.35;9.35;;;21.00;64.50;;;;;;6040281;23;93049;-71
2022/04/14 10:48:33;;;;;;;12.05;10.88;;;20.80;65.10;;;;;;6066591;23;93190;-71
2022/04/14 10:51:24;;;;;;;10.27;9.18;;;20.80;65.50;;;;;;6066265;23;92812;-71
2022/04/14 10:53:58;;;;;;;10.93;9.65;;;21.00;65.70;;;;;;6041571;23;91941;-71
2022/04/14 10:56:34;;;;;;;8.77;7.97;;;21.10;65.90;;;;;;6064545;23;95768;-71
2022/04/14 10:59:02;;;;;;;10.20;9.25;;;21.20;64.60;;;;;;6040425;23;95298;-71
2022/04/14 11:04:33;;;;;;;8.32;7.53;;;21.50;64.50;;;;;;6040755;23;92911;-71
2022/04/14 11:07:14;;;;;;;7.15;6.25;;;21.70;64.50;;;;;;6040798;23;93378;-71
2022/04/14 11:09:53;;;;;;;7.18;6.18;;;22.00;63.80;;;;;;6066278;23;92874;-71
2022/04/14 11:12:27;;;;;;;8.80;7.20;;;22.10;62.60;;;;;;6065145;23;92401;-71
2022/04/14 11:15:06;;;;;;;8.38;7.45;;;22.40;62.50;;;;;;6040601;23;92565;-70
2022/04/14 11:17:40;;;;;;;7.93;7.22;;;22.60;61.70;;;;;;6066135;23;93335;-70
2022/04/14 11:20:18;;;;;;;7.90;7.10;;;22.60;61.90;;;;;;6065201;23;95885;-71
2022/04/14 11:23:05;;;;;;;7.20;6.47;;;22.50;61.50;;;;;;6040599;23;92516;-71
2022/04/14 11:25:53;;;;;;;6.57;4.95;;;22.40;60.40;;;;;;6066029;23;92486;-70
2022/04/14 11:28:33;;;;;;;7.95;6.40;;;22.50;61.00;;;;;;6038756;23;98064;-71
2022/04/14 11:31:18;;;;;;;4.60;4.15;;;22.50;60.40;;;;;;6040553;23;95137;-71
2022/04/14 11:33:47;;;;;;;5.00;4.45;;;22.40;58.60;;;;;;6040627;23;92463;-70
2022/04/14 11:36:26;;;;;;;7.40;3.55;;;22.30;59.10;;;;;;6040101;23;92594;-71
2022/04/14 11:39:01;;;;;;;4.45;2.78;;;22.30;60.20;;;;;;6066345;23;92320;-71
2022/04/14 11:41:42;;;;;;;4.60;4.20;;;22.20;59.80;;;;;;6066012;23;92851;-71
2022/04/14 11:44:12;;;;;;;4.43;3.67;;;22.30;59.90;;;;;;6040578;23;92443;-71
2022/04/14 11:46:42;;;;;;;4.93;4.35;;;22.30;59.10;;;;;;6041172;23;91748;-71
2022/04/14 11:49:10;;;;;;;6.18;5.05;;;22.20;59.00;;;;;;6064911;23;95749;-71
2022/04/14 11:51:47;;;;;;;5.50;5.00;;;22.10;60.30;;;;;;6039871;23;95653;-70
2022/04/14 11:54:35;;;;;;;5.97;3.83;;;22.00;59.90;;;;;;6065162;23;94681;-71
2022/04/14 11:57:09;;;;;;;5.18;3.80;;;21.80;60.40;;;;;;6041450;23;92474;-71
2022/04/14 11:59:40;;;;;;;5.45;4.65;;;21.80;60.40;;;;;;6064597;23;95638;-71
2022/04/14 12:02:12;;;;;;;5.22;3.70;;;21.90;60.40;;;;;;6041009;23;92845;-71
2022/04/14 12:04:45;;;;;;;5.90;5.40;;;22.20;60.30;;;;;;6040316;23;92462;-71
2022/04/14 12:07:13;;;;;;;4.65;2.45;;;22.50;59.10;;;;;;6040053;23;92589;-70
2022/04/14 12:09:41;;;;;;;4.80;3.88;;;22.70;57.00;;;;;;6065321;23;106426;-70
2022/04/14 12:12:17;;;;;;;4.25;3.40;;;22.90;57.50;;;;;;6066471;23;92837;-71
2022/04/14 12:14:50;;;;;;;5.35;4.13;;;23.10;57.10;;;;;;6066059;23;92386;-70
2022/04/14 12:17:22;;;;;;;6.25;5.65;;;22.90;57.30;;;;;;6040906;23;92701;-71
2022/04/14 12:19:58;;;;;;;6.57;4.70;;;22.40;59.30;;;;;;6033152;23;98090;-70
2022/04/14 12:22:29;;;;;;;7.43;6.68;;;22.00;61.30;;;;;;6066211;23;93951;-71
2022/04/14 12:24:59;;;;;;;5.18;4.53;;;21.70;62.00;;;;;;6039946;23;93549;-71
2022/04/14 12:27:28;;;;;;;4.78;3.53;;;21.70;62.20;;;;;;6066286;23;92339;-71
2022/04/14 12:30:02;;;;;;;4.68;3.38;;;21.50;62.00;;;;;;6040062;23;93121;-71
2022/04/14 12:32:29;;;;;;;4.93;4.32;;;21.40;62.20;;;;;;6040137;23;95531;-71
2022/04/14 12:34:57;;;;;;;4.50;3.42;;;21.10;62.10;;;;;;6065371;23;100521;-70
2022/04/14 12:37:37;;;;;;;2.88;2.67;;;21.10;62.20;;;;;;6017313;23;91782;-71
2022/04/14 12:40:05;;;;;;;3.95;2.70;;;21.20;62.10;;;;;;6040374;23;93107;-71
2022/04/14 12:42:32;;;;;;;4.00;3.13;;;21.30;62.70;;;;;;6039773;23;95338;-70
2022/04/14 12:45:08;;;;;;;2.90;2.10;;;21.50;60.80;;;;;;6038498;23;94948;-70
2022/04/14 12:47:36;;;;;;;4.30;2.20;;;21.70;60.40;;;;;;6066171;23;92399;-71